Flight Track Log - Related Links

Times and Time Zones

All times are in EDT time to prevent confusion due to time zone crossing. See the N2BA flight status page for this flight to view local times or setup timezone preferences in your user account.

Time Position Orientation Groundspeed Altitude Reporting Facility
EDT Latitude Longitude Course Direction KTS MPH feet Rate Location/Type
Sat 06:38:16 PM 29.9869 -90.2392 102° East 167 192 2,300  Level Houston Center
Sat 06:38:46 PM 29.9808 -90.2081 103° East 171 197 4,500 3,774 Climbing Houston Center
Sat 06:39:18 PM 29.9806 -90.1786 91° East 225 259 6,200 3,548 Climbing Houston Center
Sat 06:40:19 PM 29.9911 -90.0983 81° East 251 289 10,000 3,220 Climbing Houston Center
Sat 06:41:21 PM 30.0000 -90.0006 84° East 302 348 12,800 3,659 Climbing Houston Center
Sat 06:42:22 PM 30.0197 -89.8956 78° East 336 387 17,500 3,659 Climbing Houston Center
Sat 06:43:24 PM 30.0469 -89.7683 76° East 347 399 20,300 2,226 Climbing Houston Center
Sat 06:44:26 PM 30.0669 -89.6439 79° East 395 455 22,100 1,317 Climbing Houston Center
Sat 06:45:27 PM 30.0894 -89.5147 79° East 414 476 23,000 439 Climbing Houston Center
Sat 06:46:29 PM 30.1156 -89.3728 78° East 451 519 23,000  Level Houston Center
Sat 06:47:30 PM 30.1414 -89.2297 78° East 457 526 23,000  Level Houston Center
Sat 06:48:32 PM 30.1664 -89.0856 79° East 458 527 23,000  Level Houston Center
Sat 06:49:33 PM 30.1919 -88.9192 80° East 455 524 23,000  Level Houston Center
Sat 06:50:35 PM 30.2167 -88.7756 79° East 457 526 23,000  Level Houston Center
Sat 06:51:37 PM 30.2419 -88.6328 78° East 456 525 23,000  Level Houston Center
Sat 06:52:38 PM 30.2647 -88.4894 80° East 457 526 23,000 -1,220 Level Houston Center
Sat 06:53:40 PM 30.2881 -88.3425 80° East 467 537 20,500 -2,439 Descending Houston Center
Sat 06:54:41 PM 30.3164 -88.1642 80° East 473 544 18,000 -2,732 Descending Houston Center
Sat 06:55:43 PM 30.3422 -88.0228 78° East 461 531 14,900 -1,902 Descending Houston Center
Sat 06:56:44 PM 30.3828 -87.9006 69° East 415 478 14,100 -1,024 Descending Houston Center
Sat 06:57:46 PM 30.4022 -87.7869 79° East 366 421 12,800 -1,306 Descending Houston Center
Sat 06:58:48 PM 30.4328 -87.6900 70° East 341 392 11,400 -1,902 Descending Houston Center
Sat 06:59:49 PM 30.4319 -87.5964 91° East 295 339 8,900 -2,733 Descending Houston Center
Sat 07:00:29 PM 30.4286 -87.5250 93° East 274 315 6,800 -2,673 Descending Jacksonville Center
Sat 07:01:30 PM 30.4317 -87.4408 88° East 266 306 4,400 -1,574 Descending Jacksonville Center
Sat 07:02:31 PM 30.4383 -87.3689 84° East 202 232 3,600 -1,091 Descending Jacksonville Center
Sat 07:03:31 PM 30.4486 -87.3139 78° East 159 183 2,200 -1,190 Descending Jacksonville Center
Sat 07:04:32 PM 30.4586 -87.2708 75° East 134 154 1,200 -744 Descending Jacksonville Center
Sat 07:05:32 PM 30.4642 -87.2303 81° East 133 153 700 -500 Descending Jacksonville Center

Login

Don't have an account? Register now (free) for customized features, flight alerts, and more!